Time;durP1;ratioP1;P1;durP2;ratioP2;P2;SDS_P1;SDS_P2;PMS_P1;PMS_P2;Temp;Humidity;BMP_temperature;BMP_pressure;BME280_temperature;BME280_humidity;BME280_pressure;Samples;Min_cycle;Max_cycle;Signal;HPM_P1;HPM_P2
2022/10/12 00:01:20;;;;;;;2.17;1.75;;;;;;;12.27;80.36;100395.72;5054297;28;20045;-71
2022/10/12 00:03:49;;;;;;;2.42;1.95;;;;;;;12.24;80.20;100393.16;5054222;28;20061;-71
2022/10/12 00:06:22;;;;;;;1.98;1.80;;;;;;;12.21;80.33;100398.25;5054450;28;20483;-73
2022/10/12 00:08:53;;;;;;;1.63;1.50;;;;;;;12.26;80.00;100396.56;5069603;28;20044;-71
2022/10/12 00:11:25;;;;;;;3.05;2.38;;;;;;;12.28;79.89;100400.00;5054232;28;20052;-73
2022/10/12 00:13:56;;;;;;;2.58;2.33;;;;;;;12.29;79.75;100386.31;5054418;28;20048;-74
2022/10/12 00:16:25;;;;;;;;;;;;;;;12.28;79.42;100389.75;5053498;28;20139;-74
2022/10/12 00:18:55;;;;;;;2.93;1.83;;;;;;;12.26;79.45;100396.56;5054102;28;19920;-74
2022/10/12 00:21:27;;;;;;;2.25;1.73;;;;;;;12.25;79.41;100395.72;5053951;28;20053;-71
2022/10/12 00:23:57;;;;;;;2.55;1.98;;;;;;;12.19;79.19;100389.72;5052939;28;20498;-73
2022/10/12 00:26:27;;;;;;;8.68;2.20;;;;;;;12.19;79.27;100390.56;5052872;28;20045;-72
2022/10/12 00:28:57;;;;;;;4.38;3.35;;;;;;;12.12;79.48;100388.81;5053787;28;20079;-72
2022/10/12 00:31:27;;;;;;;1.73;1.63;;;;;;;11.97;79.51;100394.72;5054154;28;20048;-71
2022/10/12 00:33:59;;;;;;;2.35;1.63;;;;;;;11.93;79.64;100403.22;5054343;28;20049;-73
2022/10/12 00:36:32;;;;;;;3.38;2.45;;;;;;;11.91;79.89;100394.69;5054382;28;20385;-72
2022/10/12 00:39:02;;;;;;;0.93;0.90;;;;;;;11.89;79.96;100404.06;5054042;28;20052;-74
2022/10/12 00:41:35;;;;;;;2.42;1.77;;;;;;;11.90;80.00;100405.75;5054246;28;20051;-73
2022/10/12 00:44:05;;;;;;;4.57;1.13;;;;;;;11.91;80.13;100401.50;5035861;28;20076;-72
2022/10/12 00:46:36;;;;;;;1.73;1.48;;;;;;;11.89;80.04;100401.50;5053866;28;20394;-72
2022/10/12 00:49:12;;;;;;;2.05;1.88;;;;;;;11.85;79.98;100399.75;5035865;28;20098;-73
2022/10/12 00:51:45;;;;;;;1.52;1.42;;;;;;;11.87;79.98;100397.22;5053642;28;20059;-74
2022/10/12 00:54:20;;;;;;;1.88;1.15;;;;;;;11.84;79.89;100398.06;5053781;28;20092;-72
2022/10/12 00:56:51;;;;;;;3.58;1.98;;;;;;;11.80;79.92;100393.78;5053521;28;20052;-71
2022/10/12 00:59:25;;;;;;;1.63;1.08;;;;;;;11.77;80.02;100390.34;5053223;28;20133;-73
2022/10/12 01:01:54;;;;;;;1.70;1.10;;;;;;;11.75;80.21;100390.34;5053751;28;20102;-72
2022/10/12 01:04:24;;;;;;;1.83;1.65;;;;;;;11.73;80.12;100399.72;5053334;28;20132;-72
2022/10/12 01:06:54;;;;;;;0.90;0.88;;;;;;;11.74;80.24;100406.53;5053592;28;20049;-72
2022/10/12 01:09:23;;;;;;;3.28;2.88;;;;;;;11.72;80.17;100403.13;5053371;28;20517;-73
2022/10/12 01:11:51;;;;;;;2.60;2.07;;;;;;;11.74;80.12;100409.09;5053437;28;20037;-71
2022/10/12 01:14:20;;;;;;;1.85;1.65;;;;;;;11.74;80.17;100401.41;5053343;28;20270;-73
2022/10/12 01:16:54;;;;;;;1.03;0.97;;;;;;;11.71;80.13;100401.38;5052105;28;20391;-71
2022/10/12 01:19:48;;;;;;;1.75;1.63;;;;;;;11.68;80.21;100393.72;5053313;28;20052;-73
2022/10/12 01:22:23;;;;;;;0.60;0.60;;;;;;;11.66;80.13;100403.03;5052348;28;20486;-72
2022/10/12 01:24:59;;;;;;;4.55;1.75;;;;;;;11.65;80.21;100391.09;5053496;28;20053;-73
2022/10/12 01:27:40;;;;;;;1.73;1.50;;;;;;;11.67;80.24;100402.19;5053241;28;20041;-73
2022/10/12 01:30:14;;;;;;;1.42;1.33;;;;;;;11.67;80.15;100399.63;5053517;28;20052;-74
2022/10/12 01:33:06;;;;;;;1.67;1.42;;;;;;;11.64;80.14;100394.50;5053526;28;20045;-73
2022/10/12 01:35:42;;;;;;;2.25;2.05;;;;;;;11.63;80.43;100395.38;5053081;28;20044;-71
2022/10/12 01:38:26;;;;;;;1.75;1.55;;;;;;;11.62;80.42;100391.06;5053171;28;20045;-73
2022/10/12 01:41:02;;;;;;;2.92;2.22;;;;;;;11.64;80.45;100396.19;5053702;28;20053;-71
2022/10/12 01:43:35;;;;;;;1.23;1.13;;;;;;;11.65;80.33;100401.34;5057049;28;20045;-74
2022/10/12 01:46:23;;;;;;;2.53;1.88;;;;;;;11.63;80.37;100403.03;5056827;28;20052;-72
2022/10/12 01:48:56;;;;;;;2.45;1.50;;;;;;;11.49;80.18;100384.19;5054905;28;20045;-73
2022/10/12 01:51:35;;;;;;;2.03;1.67;;;;;;;11.61;80.43;100399.63;5056734;28;20055;-71
2022/10/12 01:54:12;;;;;;;5.78;3.05;;;;;;;11.62;80.17;100401.31;5055921;28;20048;-74
2022/10/12 01:56:48;;;;;;;2.65;2.15;;;;;;;11.61;80.55;100399.63;5038500;28;20178;-72
2022/10/12 01:59:26;;;;;;;2.60;1.88;;;;;;;11.61;80.57;100399.63;5056600;28;20049;-71
2022/10/12 02:02:02;;;;;;;2.60;1.30;;;;;;;11.64;80.54;100404.72;5057487;28;20060;-71
2022/10/12 02:04:37;;;;;;;1.40;1.30;;;;;;;11.67;80.22;100403.88;5057165;28;20044;-72
2022/10/12 02:07:12;;;;;;;2.75;2.28;;;;;;;11.64;80.31;100396.19;5056350;28;20124;-72
2022/10/12 02:09:42;;;;;;;2.88;2.53;;;;;;;11.59;80.30;100401.28;5056514;28;20075;-73
2022/10/12 02:12:14;;;;;;;3.22;2.50;;;;;;;11.58;80.44;100399.59;5056740;28;20045;-73
2022/10/12 02:14:46;;;;;;;3.72;2.35;;;;;;;11.56;80.34;100414.06;5056697;28;20052;-72
2022/10/12 02:17:21;;;;;;;1.25;1.15;;;;;;;11.55;80.41;100412.34;5056290;28;20041;-73
2022/10/12 02:19:55;;;;;;;1.50;1.40;;;;;;;11.48;80.26;100395.25;5056866;28;20049;-72
2022/10/12 02:22:29;;;;;;;7.10;2.15;;;;;;;11.21;80.48;100341.38;5056327;28;20044;-72
2022/10/12 02:25:00;;;;;;;1.65;1.52;;;;;;;11.60;80.31;100409.81;5056238;28;20080;-72
2022/10/12 02:27:31;;;;;;;1.65;1.55;;;;;;;11.53;80.23;100396.13;5056090;28;20045;-72
2022/10/12 02:30:00;;;;;;;1.35;1.25;;;;;;;11.59;80.12;100410.66;5056426;28;20384;-72
2022/10/12 02:32:37;;;;;;;1.73;1.42;;;;;;;11.54;80.11;100399.56;5056129;28;20049;-72
2022/10/12 02:35:13;;;;;;;2.50;1.35;;;;;;;11.58;79.80;100409.81;5038587;28;20049;-72
2022/10/12 02:37:47;;;;;;;4.90;2.33;;;;;;;11.56;79.74;100401.28;5055089;28;20065;-72
2022/10/12 02:40:21;;;;;;;2.25;1.83;;;;;;;11.56;79.67;100403.84;5056252;28;20394;-72
2022/10/12 02:42:57;;;;;;;1.35;1.20;;;;;;;11.56;79.78;100400.41;5055954;28;20053;-71
2022/10/12 02:45:41;;;;;;;2.95;2.42;;;;;;;11.53;79.65;100398.69;5055830;28;20506;-72
2022/10/12 02:48:16;;;;;;;3.50;2.03;;;;;;;11.54;79.35;100402.94;5056032;28;20037;-71
2022/10/12 02:50:46;;;;;;;16.13;3.42;;;;;;;11.51;79.57;100402.09;5055586;28;20510;-72
2022/10/12 02:53:16;;;;;;;1.75;1.52;;;;;;;11.53;79.38;100392.72;5054157;28;20490;-72
2022/10/12 02:55:49;;;;;;;2.13;1.63;;;;;;;11.51;79.35;100400.38;5055933;28;20060;-73
2022/10/12 02:58:18;;;;;;;1.75;1.50;;;;;;;11.44;79.35;100401.19;5055335;28;20060;-73
2022/10/12 03:00:47;;;;;;;1.90;1.75;;;;;;;11.43;79.48;100405.44;5055568;28;20049;-72
2022/10/12 03:03:17;;;;;;;1.33;1.20;;;;;;;11.42;79.40;100397.78;5055479;28;20041;-72
2022/10/12 03:05:46;;;;;;;1.73;1.52;;;;;;;11.43;79.11;100404.59;5054273;28;20266;-72
2022/10/12 03:08:15;;;;;;;1.75;1.15;;;;;;;11.42;79.23;100400.34;5055277;28;20045;-73
2022/10/12 03:10:43;;;;;;;1.05;1.00;;;;;;;11.40;79.33;100399.44;5055261;28;20544;-73
2022/10/12 03:13:12;;;;;;;1.50;1.40;;;;;;;11.33;79.49;100397.69;5055280;28;20043;-72
2022/10/12 03:15:41;;;;;;;3.95;2.38;;;;;;;11.33;79.22;100402.78;5053820;28;20379;-73
2022/10/12 03:18:10;;;;;;;1.60;1.50;;;;;;;11.35;79.19;100401.09;5055162;28;20045;-72
2022/10/12 03:20:40;;;;;;;0.95;0.95;;;;;;;11.34;79.03;100407.06;5055053;28;20290;-73
2022/10/12 03:23:09;;;;;;;3.80;1.75;;;;;;;11.32;79.11;100406.22;5054373;28;20133;-72
2022/10/12 03:25:38;;;;;;;1.15;1.05;;;;;;;11.21;79.20;100387.38;5055046;28;20041;-72
2022/10/12 03:28:06;;;;;;;1.90;1.50;;;;;;;11.28;79.38;100404.44;5055171;28;20037;-72
2022/10/12 03:30:35;;;;;;;4.07;2.72;;;;;;;11.26;79.19;100395.94;5054877;28;20044;-72
2022/10/12 03:33:04;;;;;;;0.93;0.85;;;;;;;11.24;79.33;100405.28;5055478;28;20049;-72
2022/10/12 03:35:32;;;;;;;2.63;1.63;;;;;;;11.25;79.53;100401.91;5054862;28;20044;-72
2022/10/12 03:38:03;;;;;;;4.03;2.15;;;;;;;11.25;79.40;100414.69;5054835;28;20041;-73
2022/10/12 03:40:31;;;;;;;2.45;1.35;;;;;;;11.24;79.40;100403.59;5054727;28;20053;-73
2022/10/12 03:43:00;;;;;;;3.15;1.80;;;;;;;11.23;79.26;100401.00;5053716;28;20048;-72
2022/10/12 03:45:29;;;;;;;8.40;1.73;;;;;;;11.19;79.39;100400.13;5054692;28;20486;-72
2022/10/12 03:47:57;;;;;;;4.30;1.65;;;;;;;11.17;79.73;100400.97;5054814;28;20041;-72
2022/10/12 03:50:33;;;;;;;3.50;1.77;;;;;;;11.17;79.67;100403.53;5054568;28;20496;-72
2022/10/12 03:53:05;;;;;;;1.60;1.50;;;;;;;11.13;79.32;100409.47;5054508;28;20049;-72
2022/10/12 03:55:34;;;;;;;1.55;1.45;;;;;;;11.14;79.75;100400.94;5054493;28;20063;-73
2022/10/12 03:58:02;;;;;;;2.10;1.83;;;;;;;11.15;79.69;100402.66;5054171;28;20055;-73
2022/10/12 04:00:31;;;;;;;1.48;1.38;;;;;;;11.14;79.80;100411.16;5054178;28;20115;-72
2022/10/12 04:03:01;;;;;;;1.00;1.00;;;;;;;11.11;79.60;100404.31;5054184;28;20041;-72
2022/10/12 04:05:29;;;;;;;;;;;;;;;11.09;79.50;100397.47;5053477;28;20045;-73
2022/10/12 04:07:58;;;;;;;3.30;1.45;;;;;;;11.01;79.44;100400.00;5054106;28;19921;-72
2022/10/12 04:10:28;;;;;;;3.33;2.30;;;;;;;11.03;79.74;100405.97;5054127;28;20402;-72
2022/10/12 04:12:57;;;;;;;3.10;2.55;;;;;;;11.03;79.68;100407.66;5054158;28;20376;-73
2022/10/12 04:15:26;;;;;;;3.28;1.50;;;;;;;11.02;79.70;100400.81;5054057;28;20568;-73
2022/10/12 04:17:55;;;;;;;1.25;1.15;;;;;;;11.01;79.92;100409.34;5052819;28;20562;-73
2022/10/12 04:20:23;;;;;;;4.85;2.90;;;;;;;11.01;79.89;100415.31;5054081;28;20127;-73
2022/10/12 04:22:52;;;;;;;3.45;1.70;;;;;;;10.99;80.04;100414.41;5054280;28;20069;-72
2022/10/12 04:25:21;;;;;;;1.90;1.80;;;;;;;10.99;80.03;100416.16;5053956;28;20045;-72
2022/10/12 04:27:56;;;;;;;19.27;2.00;;;;;;;10.98;80.09;100409.31;5053965;28;20053;-72
2022/10/12 04:30:25;;;;;;;2.67;2.08;;;;;;;10.94;79.86;100416.06;5054002;28;20593;-73
2022/10/12 04:32:53;;;;;;;2.08;1.65;;;;;;;10.81;80.02;100400.63;5054080;28;20405;-72
2022/10/12 04:35:22;;;;;;;6.68;3.17;;;;;;;10.92;80.03;100419.47;5053779;28;20045;-73
2022/10/12 04:37:51;;;;;;;1.33;1.23;;;;;;;10.87;80.09;100414.31;5054042;28;20047;-72
2022/10/12 04:40:19;;;;;;;1.57;1.47;;;;;;;10.88;80.30;100415.16;5053697;28;20499;-73
2022/10/12 04:42:48;;;;;;;1.60;1.17;;;;;;;10.89;80.09;100416.91;5053677;28;20455;-73
2022/10/12 04:45:18;;;;;;;1.27;1.17;;;;;;;10.88;80.31;100417.72;5053644;28;20036;-72
2022/10/12 04:47:47;;;;;;;0.93;0.93;;;;;;;10.85;80.10;100408.34;5053621;28;20516;-73
2022/10/12 04:50:15;;;;;;;12.95;3.47;;;;;;;10.88;80.53;100417.72;5053759;28;20395;-73
2022/10/12 04:52:44;;;;;;;1.42;1.10;;;;;;;10.90;80.52;100416.91;5053482;28;20045;-72
2022/10/12 04:55:13;;;;;;;1.75;0.93;;;;;;;10.88;80.11;100407.50;5069660;28;20040;-72
2022/10/12 04:57:42;;;;;;;2.72;2.17;;;;;;;10.91;80.25;100410.09;5053433;28;20048;-72
2022/10/12 05:00:11;;;;;;;;;;;;;;;10.95;80.16;100419.50;5053721;28;20118;-73
2022/10/12 05:02:42;;;;;;;2.33;1.40;;;;;;;10.95;80.36;100414.38;5053435;28;20384;-73
2022/10/12 05:05:11;;;;;;;1.30;1.20;;;;;;;10.97;79.97;100412.69;5053450;28;20371;-73
2022/10/12 05:07:39;;;;;;;1.95;1.77;;;;;;;10.95;80.09;100414.38;5053367;28;20469;-73
2022/10/12 05:10:10;;;;;;;3.00;2.45;;;;;;;10.97;80.19;100415.25;5053251;28;20037;-73
2022/10/12 05:12:38;;;;;;;1.90;1.73;;;;;;;11.01;80.20;100414.47;5053577;28;20075;-72
2022/10/12 05:15:09;;;;;;;4.38;2.03;;;;;;;11.02;80.04;100423.81;5054560;28;20281;-72
2022/10/12 05:17:38;;;;;;;2.78;2.03;;;;;;;11.05;79.78;100421.28;5057473;28;20045;-72
2022/10/12 05:20:10;;;;;;;3.40;2.10;;;;;;;11.05;79.71;100427.25;5057717;28;20048;-73
2022/10/12 05:22:39;;;;;;;3.22;1.17;;;;;;;11.05;80.09;100422.16;5056445;28;20483;-72
2022/10/12 05:25:09;;;;;;;1.58;1.48;;;;;;;11.09;80.07;100423.03;5057571;28;20044;-73
2022/10/12 05:27:38;;;;;;;1.33;0.95;;;;;;;11.14;79.75;100426.47;5057623;28;20041;-72
2022/10/12 05:30:08;;;;;;;1.35;1.25;;;;;;;11.17;80.02;100431.63;5057167;28;20431;-72
2022/10/12 05:32:37;;;;;;;2.78;2.17;;;;;;;11.18;79.83;100433.34;5057442;28;20414;-73
2022/10/12 05:35:08;;;;;;;4.05;2.03;;;;;;;11.15;79.92;100430.75;5057062;28;20047;-72
2022/10/12 05:37:37;;;;;;;1.73;1.30;;;;;;;11.11;79.82;100437.53;5057399;28;20045;-73
2022/10/12 05:40:07;;;;;;;1.38;1.17;;;;;;;11.07;79.60;100434.94;5057281;28;20043;-72
2022/10/12 05:42:36;;;;;;;3.40;3.10;;;;;;;11.10;79.91;100434.97;5056963;28;20053;-72
2022/10/12 05:45:06;;;;;;;1.17;0.75;;;;;;;11.14;79.97;100426.47;5055915;28;20143;-72
2022/10/12 05:47:35;;;;;;;;;;;;;;;11.16;79.66;100424.78;5057568;28;20045;-72
2022/10/12 05:50:04;;;;;;;0.75;0.73;;;;;;;11.16;79.56;100422.22;5057070;28;19920;-73
2022/10/12 05:52:34;;;;;;;1.70;1.58;;;;;;;11.17;79.11;100426.50;5057273;28;20142;-72
2022/10/12 05:55:04;;;;;;;45.92;3.45;;;;;;;11.23;79.27;100427.41;5056926;28;20044;-71
2022/10/12 05:57:33;;;;;;;1.35;1.15;;;;;;;11.28;79.09;100435.13;5057318;28;20128;-72
2022/10/12 06:00:02;;;;;;;1.70;1.60;;;;;;;11.01;79.05;100381.25;5056574;28;20165;-73
2022/10/12 06:02:37;;;;;;;2.67;2.45;;;;;;;11.38;79.05;100434.34;5056654;28;20048;-72
2022/10/12 06:05:07;;;;;;;0.60;0.60;;;;;;;11.45;78.81;100438.66;5056821;28;20486;-72
2022/10/12 06:07:37;;;;;;;1.05;0.98;;;;;;;11.38;78.75;100416.47;5056492;28;20044;-72
2022/10/12 06:10:08;;;;;;;2.55;2.35;;;;;;;11.48;78.69;100438.69;5056572;28;20471;-72
2022/10/12 06:12:36;;;;;;;2.17;1.95;;;;;;;11.47;78.58;100439.53;5056551;28;20048;-71
2022/10/12 06:15:06;;;;;;;3.20;2.07;;;;;;;11.58;78.61;100444.75;5056658;28;20103;-73
2022/10/12 06:17:35;;;;;;;2.42;1.70;;;;;;;11.60;78.31;100446.47;5056336;28;20053;-74
2022/10/12 06:20:04;;;;;;;3.78;1.80;;;;;;;11.65;78.46;100442.25;5056388;28;20127;-72
2022/10/12 06:22:33;;;;;;;1.40;1.30;;;;;;;11.66;78.09;100454.16;5056200;28;20040;-73
2022/10/12 06:25:03;;;;;;;1.88;1.48;;;;;;;11.70;78.28;100450.84;5056232;28;20064;-73
2022/10/12 06:27:33;;;;;;;1.90;1.77;;;;;;;11.72;78.68;100459.38;5054561;28;20433;-73
2022/10/12 06:30:03;;;;;;;2.33;2.00;;;;;;;11.75;78.95;100456.84;5056036;28;20041;-73
2022/10/12 06:32:34;;;;;;;3.90;2.88;;;;;;;11.80;78.79;100462.84;5056308;28;20047;-72
2022/10/12 06:35:04;;;;;;;1.83;1.73;;;;;;;11.83;78.94;100462.03;5056302;28;20573;-73
2022/10/12 06:37:33;;;;;;;2.90;2.40;;;;;;;11.80;78.80;100447.50;5056219;28;20040;-73
2022/10/12 06:40:19;;;;;;;3.08;1.30;;;;;;;11.84;78.93;100458.59;5071741;28;20065;-72
2022/10/12 06:42:48;;;;;;;1.60;1.48;;;;;;;11.91;79.03;100462.91;5056202;28;20052;-73
2022/10/12 06:45:22;;;;;;;2.58;1.35;;;;;;;11.93;78.63;100462.06;5055831;28;20110;-73
2022/10/12 06:47:51;;;;;;;1.07;1.03;;;;;;;11.96;78.75;100463.78;5055708;28;20041;-72
2022/10/12 06:50:19;;;;;;;2.90;1.75;;;;;;;11.96;78.69;100459.53;5055842;28;20059;-72
2022/10/12 06:52:48;;;;;;;1.80;1.70;;;;;;;12.00;78.76;100462.97;5055422;28;20490;-74
2022/10/12 06:55:17;;;;;;;1.65;1.55;;;;;;;12.04;78.62;100468.09;5055629;28;20538;-74
2022/10/12 06:57:47;;;;;;;3.42;2.05;;;;;;;12.11;78.94;100471.56;5054357;28;20068;-73
2022/10/12 07:00:17;;;;;;;3.90;2.88;;;;;;;12.12;78.57;100472.44;5055377;28;20525;-73
2022/10/12 07:02:49;;;;;;;1.77;1.67;;;;;;;12.15;78.53;100482.66;5055419;28;20045;-73
2022/10/12 07:05:19;;;;;;;0.88;0.85;;;;;;;12.19;78.32;100481.84;5055712;28;20080;-71
2022/10/12 07:07:48;;;;;;;3.75;2.42;;;;;;;12.23;78.20;100488.69;5055701;28;20087;-71
2022/10/12 07:10:17;;;;;;;2.78;1.83;;;;;;;12.28;78.40;100492.13;5055541;28;20123;-73
2022/10/12 07:12:47;;;;;;;2.45;1.05;;;;;;;12.29;77.91;100487.00;5055283;28;20045;-72
2022/10/12 07:15:16;;;;;;;2.78;1.92;;;;;;;12.29;77.80;100478.47;5055194;28;20072;-72
2022/10/12 07:17:45;;;;;;;1.67;1.57;;;;;;;12.32;77.45;100481.06;5063211;28;20082;-73
2022/10/12 07:20:14;;;;;;;2.10;1.90;;;;;;;12.29;77.63;100481.88;5057526;28;20051;-73
2022/10/12 07:22:43;;;;;;;2.30;1.88;;;;;;;12.31;77.49;100481.91;5060135;28;20071;-72
2022/10/12 07:25:11;;;;;;;1.35;0.82;;;;;;;12.29;77.50;100479.34;5068504;28;20048;-72
2022/10/12 07:27:40;;;;;;;1.65;1.55;;;;;;;12.33;77.03;100475.09;5062641;28;20041;-72
2022/10/12 07:30:12;;;;;;;1.90;1.25;;;;;;;12.37;77.14;100479.38;5067144;28;20041;-73
2022/10/12 07:32:43;;;;;;;2.67;2.30;;;;;;;12.35;77.05;100478.53;5035553;28;20037;-72
2022/10/12 07:35:12;;;;;;;1.55;1.35;;;;;;;12.36;77.06;100472.53;5054120;28;20132;-73
2022/10/12 07:37:40;;;;;;;1.40;1.23;;;;;;;12.39;77.06;100481.09;5054421;28;20036;-73
2022/10/12 07:40:10;;;;;;;3.75;2.22;;;;;;;12.45;76.84;100475.16;5053597;28;20403;-72
2022/10/12 07:42:39;;;;;;;1.83;1.65;;;;;;;12.54;76.50;100470.94;5054891;28;20128;-71
2022/10/12 07:45:29;;;;;;;2.55;1.92;;;;;;;12.63;76.50;100472.66;5053424;28;20052;-72
2022/10/12 07:47:57;;;;;;;2.22;1.92;;;;;;;12.75;76.36;100467.56;5054834;28;20075;-73
2022/10/12 07:50:26;;;;;;;1.97;1.60;;;;;;;12.85;75.83;100468.47;5054645;28;20045;-72
2022/10/12 07:52:55;;;;;;;1.30;1.17;;;;;;;12.71;75.72;100417.19;5055316;28;20517;-72
2022/10/12 07:55:23;;;;;;;2.35;1.65;;;;;;;13.09;75.39;100466.84;5056497;28;20068;-73
2022/10/12 07:57:52;;;;;;;4.43;2.38;;;;;;;13.19;75.34;100463.44;5056677;28;20060;-73
2022/10/12 08:00:21;;;;;;;3.05;2.00;;;;;;;13.26;74.37;100459.19;5063134;28;20410;-72
2022/10/12 08:02:54;;;;;;;4.93;2.97;;;;;;;13.28;74.43;100463.47;5069183;28;20071;-74
2022/10/12 08:05:23;;;;;;;3.33;1.90;;;;;;;13.35;74.29;100460.03;5063350;28;20071;-74
2022/10/12 08:07:53;;;;;;;2.85;2.55;;;;;;;13.42;73.47;100466.00;5053640;28;20128;-73
2022/10/12 08:10:23;;;;;;;1.80;1.42;;;;;;;13.39;73.18;100466.88;5055689;28;20044;-72
2022/10/12 08:12:51;;;;;;;4.60;2.20;;;;;;;13.47;73.07;100468.56;5054139;28;20051;-72
2022/10/12 08:15:20;;;;;;;2.50;1.77;;;;;;;13.44;72.72;100451.47;5054263;28;20037;-74
2022/10/12 08:17:50;;;;;;;4.05;2.53;;;;;;;13.58;72.10;100461.75;5053994;28;20044;-72
2022/10/12 08:20:20;;;;;;;1.48;1.38;;;;;;;13.64;72.28;100467.72;5054588;28;20047;-73
2022/10/12 08:22:49;;;;;;;1.45;1.30;;;;;;;13.75;71.93;100467.75;5054264;28;20102;-73
2022/10/12 08:25:17;;;;;;;4.32;2.00;;;;;;;13.86;71.59;100469.44;5054249;28;20033;-72
2022/10/12 08:27:46;;;;;;;4.95;2.95;;;;;;;13.94;71.38;100461.72;5054138;28;20111;-74
2022/10/12 08:30:15;;;;;;;1.08;0.98;;;;;;;13.63;70.96;100407.00;5052622;28;20041;-73
2022/10/12 08:32:43;;;;;;;4.35;2.40;;;;;;;13.94;71.01;100456.59;5053689;28;20045;-75
2022/10/12 08:35:12;;;;;;;1.13;1.00;;;;;;;14.03;70.99;100456.56;5053691;28;20076;-74
2022/10/12 08:37:42;;;;;;;5.30;2.80;;;;;;;14.05;70.71;100459.97;5053562;28;20124;-74
2022/10/12 08:40:15;;;;;;;2.97;1.35;;;;;;;14.07;70.59;100453.13;5055569;28;20044;-73
2022/10/12 08:42:53;;;;;;;1.52;1.40;;;;;;;14.20;69.53;100453.94;5060419;28;20055;-73
2022/10/12 08:45:33;;;;;;;1.20;1.10;;;;;;;14.31;69.19;100447.94;5053833;28;20049;-74
2022/10/12 08:48:09;;;;;;;2.45;2.25;;;;;;;14.51;69.46;100451.31;5054232;28;20045;-74
2022/10/12 08:50:43;;;;;;;1.65;1.15;;;;;;;14.57;68.14;100448.69;5053197;28;20533;-74
2022/10/12 08:53:18;;;;;;;2.40;1.75;;;;;;;14.64;67.95;100447.78;5053817;28;20056;-71
2022/10/12 08:55:47;;;;;;;2.42;1.75;;;;;;;14.73;67.90;100447.75;5052951;28;20120;-72
2022/10/12 08:58:19;;;;;;;1.80;1.70;;;;;;;14.92;67.77;100448.53;5053361;28;20384;-73
2022/10/12 09:00:53;;;;;;;1.88;1.63;;;;;;;14.95;67.07;100450.22;5033364;28;20041;-73
2022/10/12 09:03:42;;;;;;;3.28;1.85;;;;;;;15.01;66.70;100457.88;5033508;28;20048;-72
2022/10/12 09:06:18;;;;;;;1.40;1.23;;;;;;;15.03;66.34;100451.00;5046607;28;20062;-72
2022/10/12 09:09:05;;;;;;;2.22;1.73;;;;;;;15.05;65.79;100454.41;5050406;28;20049;-74
2022/10/12 09:11:47;;;;;;;2.05;1.55;;;;;;;15.05;65.69;100456.97;5033131;28;20479;-71
2022/10/12 09:14:19;;;;;;;1.80;1.33;;;;;;;15.07;66.07;100463.00;5033343;28;20041;-71
2022/10/12 09:16:50;;;;;;;1.58;1.48;;;;;;;15.15;65.88;100456.06;5033200;28;20079;-73
2022/10/12 09:19:21;;;;;;;2.65;1.40;;;;;;;15.22;65.48;100460.31;5033055;28;20125;-73
2022/10/12 09:21:50;;;;;;;7.35;1.67;;;;;;;15.21;65.38;100456.03;5043965;28;20057;-74
2022/10/12 09:24:24;;;;;;;1.70;1.45;;;;;;;15.17;65.54;100454.34;5033899;28;20053;-74
2022/10/12 09:26:59;;;;;;;1.75;1.45;;;;;;;15.22;65.58;100457.72;5033042;28;20046;-73
2022/10/12 09:29:31;;;;;;;1.77;1.20;;;;;;;15.25;65.33;100452.56;5033659;28;20045;-73
2022/10/12 09:32:23;;;;;;;2.63;1.20;;;;;;;15.01;64.64;100416.75;5032713;28;20057;-72
2022/10/12 09:34:52;;;;;;;1.05;0.95;;;;;;;15.27;64.71;100456.84;5032252;28;20050;-72
2022/10/12 09:37:23;;;;;;;1.13;0.82;;;;;;;15.23;64.34;100438.88;5033013;28;20487;-72
2022/10/12 09:39:54;;;;;;;2.83;2.13;;;;;;;15.41;64.22;100449.00;5033211;28;20081;-73
2022/10/12 09:42:23;;;;;;;1.17;0.73;;;;;;;15.49;64.46;100452.41;5033069;28;20045;-72
2022/10/12 09:45:01;;;;;;;1.30;1.20;;;;;;;15.61;63.76;100457.47;5032953;28;20395;-73
2022/10/12 09:47:32;;;;;;;;;;;;;;;15.78;64.00;100463.31;5036420;28;20060;-72
2022/10/12 09:50:02;;;;;;;1.08;0.98;;;;;;;15.96;63.86;100462.25;5036197;28;19928;-71
2022/10/12 09:52:42;;;;;;;4.07;2.25;;;;;;;15.97;63.48;100445.97;5040649;28;20049;-71
2022/10/12 09:55:26;;;;;;;1.98;1.38;;;;;;;16.01;62.79;100463.06;5046623;28;20490;-72
2022/10/12 09:57:58;;;;;;;0.95;0.95;;;;;;;16.05;62.98;100460.44;5033112;28;20071;-71
2022/10/12 10:00:29;;;;;;;3.55;2.17;;;;;;;15.99;62.71;100447.66;5032790;28;20079;-73
2022/10/12 10:02:59;;;;;;;1.80;1.33;;;;;;;16.08;62.35;100465.56;5035294;28;20076;-72
2022/10/12 10:05:28;;;;;;;;;;;;;;;16.05;61.97;100455.28;5036819;28;20107;-74
2022/10/12 10:08:18;;;;;;;1.17;1.10;;;;;;;16.06;61.89;100471.63;5035372;28;19947;-74
2022/10/12 10:10:53;;;;;;;2.30;1.30;;;;;;;16.12;61.79;100465.56;5036217;28;20080;-73
2022/10/12 10:13:26;;;;;;;2.10;1.33;;;;;;;16.14;61.86;100461.22;5036777;28;20049;-72
2022/10/12 10:16:04;;;;;;;1.60;1.33;;;;;;;16.19;61.98;100462.91;5019123;28;20124;-73
2022/10/12 10:18:36;;;;;;;1.00;0.90;;;;;;;16.26;62.70;100455.94;5036449;28;20503;-73
2022/10/12 10:21:08;;;;;;;1.48;1.38;;;;;;;16.34;62.85;100446.41;5036483;28;20041;-72
2022/10/12 10:23:42;;;;;;;9.48;1.55;;;;;;;16.42;62.63;100445.44;5036318;28;20053;-72
2022/10/12 10:26:15;;;;;;;0.63;0.63;;;;;;;16.47;62.40;100453.13;5035405;28;20056;-73
2022/10/12 10:28:47;;;;;;;2.22;1.80;;;;;;;16.51;62.06;100439.31;5036210;28;20046;-73
2022/10/12 10:31:23;;;;;;;1.67;1.58;;;;;;;16.61;62.34;100452.09;5036152;28;20052;-72
2022/10/12 10:34:11;;;;;;;0.60;0.60;;;;;;;16.66;62.14;100449.47;5036104;28;20050;-72
2022/10/12 10:36:44;;;;;;;0.70;0.70;;;;;;;16.65;62.18;100442.63;5036096;28;20495;-72
2022/10/12 10:39:22;;;;;;;2.35;1.55;;;;;;;16.67;62.01;100443.44;5046823;28;20075;-72
2022/10/12 10:41:54;;;;;;;1.50;1.40;;;;;;;16.65;61.68;100440.03;5034759;28;20091;-71
2022/10/12 10:44:33;;;;;;;1.55;1.10;;;;;;;16.62;61.06;100438.34;5035865;28;20575;-72
2022/10/12 10:47:08;;;;;;;2.77;2.00;;;;;;;16.62;61.42;100437.50;5035821;28;20117;-72
2022/10/12 10:49:41;;;;;;;2.60;1.63;;;;;;;16.65;62.28;100432.31;5035771;28;20046;-72
2022/10/12 10:52:23;;;;;;;2.35;1.25;;;;;;;16.67;61.97;100440.88;5050284;28;20055;-72
2022/10/12 10:55:14;;;;;;;1.35;1.13;;;;;;;16.61;62.08;100420.31;5043235;28;20053;-73
2022/10/12 10:57:50;;;;;;;2.15;1.83;;;;;;;16.82;61.98;100439.81;5035919;28;20049;-72
2022/10/12 11:00:21;;;;;;;2.78;1.88;;;;;;;16.89;62.22;100437.13;5033204;28;20726;-71
2022/10/12 11:03:14;;;;;;;1.38;1.27;;;;;;;16.99;61.69;100433.53;5034692;28;20068;-71
2022/10/12 11:05:48;;;;;;;0.82;0.82;;;;;;;17.06;61.74;100435.13;5035675;28;20045;-71
2022/10/12 11:08:22;;;;;;;1.83;1.73;;;;;;;17.12;61.68;100429.91;5035449;28;20057;-75
2022/10/12 11:10:56;;;;;;;2.15;1.85;;;;;;;17.17;61.63;100430.69;5035692;28;20049;-74
2022/10/12 11:13:32;;;;;;;0.60;0.60;;;;;;;17.21;61.92;100434.91;5034929;28;20046;-74
2022/10/12 11:16:08;;;;;;;1.88;1.67;;;;;;;17.21;62.07;100431.47;5035594;28;20124;-74
2022/10/12 11:18:42;;;;;;;2.47;2.13;;;;;;;17.19;62.28;100431.50;5035242;28;20045;-74
2022/10/12 11:21:15;;;;;;;1.17;1.08;;;;;;;17.17;62.13;100430.69;5035372;28;20045;-71
2022/10/12 11:23:49;;;;;;;2.35;1.63;;;;;;;17.12;62.08;100424.72;5034103;28;20574;-73
2022/10/12 11:26:25;;;;;;;0.52;0.52;;;;;;;17.17;62.56;100422.94;5035387;28;20392;-73
2022/10/12 11:28:59;;;;;;;2.17;1.88;;;;;;;17.23;62.27;100422.81;5037680;28;20049;-74
2022/10/12 11:31:32;;;;;;;1.85;1.33;;;;;;;17.27;62.50;100418.47;5033983;28;20099;-72
2022/10/12 11:34:05;;;;;;;1.10;1.00;;;;;;;17.14;62.24;100397.19;5034964;28;20069;-73
2022/10/12 11:36:45;;;;;;;0.70;0.70;;;;;;;17.28;62.42;100415.88;5041829;28;20076;-73
2022/10/12 11:39:39;;;;;;;2.03;1.23;;;;;;;17.30;62.22;100408.94;5052082;28;20045;-72
2022/10/12 11:42:15;;;;;;;2.25;2.05;;;;;;;17.41;62.66;100407.06;5043209;28;20057;-71
2022/10/12 11:44:52;;;;;;;2.38;1.85;;;;;;;17.54;62.63;100409.47;5034790;28;20041;-72
2022/10/12 11:47:31;;;;;;;1.55;1.25;;;;;;;17.65;62.49;100410.13;5034784;28;20129;-72
2022/10/12 11:50:03;;;;;;;2.20;1.42;;;;;;;17.74;62.07;100404.78;5034694;28;20053;-71